首页
METAR-TAF:

METAR-TAF

机场 :

Gwinnett County Airport (Briscoe Field)

劳伦斯维尔, 喬治亞, 美国

纬度: 33-58-41N, 经度: 083-57-45W, 海拔: 323米

当前天气观测

该预报发布于48分钟前的23:56 UTC
风速5节,风向东北
温度 18°C
湿度 88%
气压 1015 hPa
能見度: 16.1公里
多云层高于1600英尺
小雨

METAR: KLZU 152356Z 05005KT 10SM -RA BKN016 18/16 A2998 RMK AO2 RAB36 SLP157 P0000 60000 T01830161 10211 20178 58012

时间: 20:44 (00:44 UTC)


TAF: 丢失

超过4000个机场的气象观测和天气预报(METAR&TAF报告)。

可查询的气象台以黄色和红色小点在地图上表示。

将鼠标移到小点上方,可查看气象台名称。

然后点击查看天气观测和预报。

如需切换地图:点击带黑十字的绿色按钮放大地图;点击带横线的绿色按钮缩小地图;或者点击绿色箭头查看邻近地区的地图。


METAR-TAF: